Time;durP1;ratioP1;P1;durP2;ratioP2;P2;SDS_P1;SDS_P2;PMS_P1;PMS_P2;Temp;Humidity;BMP_temperature;BMP_pressure;BME280_temperature;BME280_humidity;BME280_pressure;Samples;Min_cycle;Max_cycle;Signal;HPM_P1;HPM_P2
2023/10/06 00:00:50;;;;;;;4.82;2.60;;;14.80;99.90;;;;;;4154599;28;20029;-72
2023/10/06 00:02:51;;;;;;;7.28;3.60;;;14.80;99.90;;;;;;4124373;28;20026;-72
2023/10/06 00:04:52;;;;;;;5.72;2.90;;;14.80;99.90;;;;;;4148356;28;20096;-72
2023/10/06 00:06:54;;;;;;;7.65;2.60;;;14.80;99.90;;;;;;4157297;28;20037;-72
2023/10/06 00:08:57;;;;;;;3.72;2.67;;;14.80;99.90;;;;;;4136047;28;20041;-72
2023/10/06 00:11:10;;;;;;;7.70;3.08;;;14.80;99.90;;;;;;4152712;28;20046;-72
2023/10/06 00:13:29;;;;;;;;;;;14.80;99.90;;;;;;4153235;28;20036;-72
2023/10/06 00:15:38;;;;;;;6.25;2.92;;;14.80;99.90;;;;;;4149205;28;19925;-72
2023/10/06 00:17:48;;;;;;;8.38;3.22;;;14.80;99.90;;;;;;4136698;28;20469;-72
2023/10/06 00:19:54;;;;;;;8.05;3.17;;;14.80;99.90;;;;;;4153811;28;20036;-72
2023/10/06 00:22:03;;;;;;;8.38;3.58;;;14.80;99.90;;;;;;4148214;28;20030;-72
2023/10/06 00:24:04;;;;;;;6.28;2.88;;;14.80;99.90;;;;;;4128641;28;20030;-72
2023/10/06 00:26:08;;;;;;;5.88;3.00;;;14.80;99.90;;;;;;4132484;28;20065;-72
2023/10/06 00:28:19;;;;;;;5.03;2.60;;;14.80;99.90;;;;;;4149166;28;20037;-72
2023/10/06 00:30:20;;;;;;;5.05;2.75;;;14.80;99.90;;;;;;4137791;28;20026;-72
2023/10/06 00:32:26;;;;;;;6.85;2.85;;;14.80;99.90;;;;;;4132794;28;20053;-72
2023/10/06 00:34:30;;;;;;;5.38;2.60;;;14.80;99.90;;;;;;4133522;28;20062;-72
2023/10/06 00:36:31;;;;;;;5.28;3.17;;;14.80;99.90;;;;;;4153647;28;20042;-72
2023/10/06 00:38:32;;;;;;;6.80;2.85;;;14.80;99.90;;;;;;4153513;28;20558;-72
2023/10/06 00:40:35;;;;;;;4.75;2.55;;;14.80;99.90;;;;;;4152345;28;20042;-70
2023/10/06 00:42:36;;;;;;;4.90;2.70;;;14.80;99.90;;;;;;4148738;28;20037;-70
2023/10/06 00:44:39;;;;;;;6.40;2.92;;;14.80;99.90;;;;;;4153410;28;20446;-70
2023/10/06 00:46:42;;;;;;;6.50;3.08;;;14.80;99.90;;;;;;4136188;28;20038;-70
2023/10/06 00:48:44;;;;;;;;;;;14.70;99.90;;;;;;4150111;28;20034;-69
2023/10/06 00:50:45;;;;;;;4.15;3.00;;;14.70;99.90;;;;;;4136376;28;19909;-70
2023/10/06 00:52:45;;;;;;;6.43;2.72;;;14.60;99.90;;;;;;4145800;28;20037;-69
2023/10/06 00:54:46;;;;;;;7.57;3.00;;;14.70;99.90;;;;;;4131172;28;20073;-70
2023/10/06 00:56:47;;;;;;;6.15;3.35;;;14.60;99.90;;;;;;4148606;28;20449;-70
2023/10/06 00:58:48;;;;;;;7.07;3.38;;;14.60;99.90;;;;;;4147310;28;20034;-70
2023/10/06 01:00:52;;;;;;;4.63;2.95;;;14.60;99.90;;;;;;4151917;28;20029;-70
2023/10/06 01:02:53;;;;;;;6.55;3.00;;;14.60;99.90;;;;;;4137317;28;20609;-70
2023/10/06 01:04:53;;;;;;;5.80;3.38;;;14.50;99.90;;;;;;4151136;28;20026;-70
2023/10/06 01:06:54;;;;;;;7.25;3.58;;;14.50;99.90;;;;;;4129311;28;20044;-71
2023/10/06 01:09:05;;;;;;;6.47;3.17;;;14.60;99.90;;;;;;4148011;28;20038;-70
2023/10/06 01:11:16;;;;;;;6.00;2.92;;;14.50;99.90;;;;;;4114772;28;20038;-70
2023/10/06 01:13:19;;;;;;;5.60;2.90;;;14.50;99.90;;;;;;4151630;28;20038;-70
2023/10/06 01:15:20;;;;;;;;;;;14.50;99.90;;;;;;4127765;28;20030;-70
2023/10/06 01:17:22;;;;;;;6.75;3.30;;;14.50;99.90;;;;;;4152050;28;19913;-71
2023/10/06 01:19:33;;;;;;;8.52;3.17;;;14.40;99.90;;;;;;4126113;28;20526;-70
2023/10/06 01:21:38;;;;;;;5.47;3.10;;;14.40;99.90;;;;;;4149361;28;20044;-70
2023/10/06 01:23:39;;;;;;;6.53;3.28;;;14.40;99.90;;;;;;4136577;28;20133;-70
2023/10/06 01:25:40;;;;;;;7.60;3.08;;;14.40;99.90;;;;;;4152677;28;20045;-69
2023/10/06 01:27:43;;;;;;;6.88;3.03;;;14.40;99.90;;;;;;4150004;28;20087;-70
2023/10/06 01:29:45;;;;;;;5.43;3.00;;;14.40;99.90;;;;;;4134698;28;20968;-69
2023/10/06 01:31:46;;;;;;;6.70;3.28;;;14.40;99.90;;;;;;4151672;28;20030;-70
2023/10/06 01:33:46;;;;;;;7.47;3.15;;;14.30;99.90;;;;;;4146011;28;20038;-69
2023/10/06 01:35:47;;;;;;;5.45;3.15;;;14.30;99.90;;;;;;4151792;28;20041;-69
2023/10/06 01:37:49;;;;;;;5.28;3.08;;;14.40;99.90;;;;;;4150619;28;20056;-69
2023/10/06 01:39:51;;;;;;;6.63;3.10;;;14.30;99.90;;;;;;4134278;28;20030;-70
2023/10/06 01:41:52;;;;;;;7.35;3.72;;;14.30;99.90;;;;;;4136396;28;20045;-69
2023/10/06 01:43:52;;;;;;;8.23;3.45;;;14.30;99.90;;;;;;4148552;28;20406;-70
2023/10/06 01:45:53;;;;;;;6.50;2.72;;;14.30;99.90;;;;;;4152659;28;20076;-70
2023/10/06 01:48:18;;;;;;;8.05;3.20;;;14.30;99.90;;;;;;4148841;28;20109;-70
2023/10/06 01:50:17;;;;;;;;;;;14.30;99.90;;;;;;4151428;28;20072;-69
2023/10/06 01:52:19;;;;;;;4.47;2.63;;;14.30;99.90;;;;;;4135854;28;19910;-69
2023/10/06 01:54:25;;;;;;;10.57;3.70;;;14.30;99.90;;;;;;4131367;28;20097;-69
2023/10/06 01:56:26;;;;;;;7.63;3.13;;;14.30;99.90;;;;;;4148769;28;20033;-70
2023/10/06 01:58:27;;;;;;;7.47;3.10;;;14.30;99.90;;;;;;4149249;28;20042;-70
2023/10/06 02:00:31;;;;;;;6.43;3.38;;;14.30;99.90;;;;;;4150634;28;20045;-70
2023/10/06 02:02:32;;;;;;;8.02;3.10;;;14.30;99.90;;;;;;4154250;28;20041;-70
2023/10/06 02:04:42;;;;;;;9.25;3.17;;;14.30;99.90;;;;;;4145630;28;20487;-69
2023/10/06 02:06:45;;;;;;;12.10;3.10;;;14.30;99.90;;;;;;4128231;28;20488;-70
2023/10/06 02:08:52;;;;;;;4.90;2.70;;;14.20;99.90;;;;;;4147837;28;20063;-69
2023/10/06 02:10:55;;;;;;;5.20;2.67;;;14.30;99.90;;;;;;4112714;28;20039;-71
2023/10/06 02:12:55;;;;;;;6.40;3.10;;;14.20;99.90;;;;;;4131703;28;20044;-71
2023/10/06 02:14:56;;;;;;;6.32;2.63;;;14.20;99.90;;;;;;4130306;28;20058;-70
2023/10/06 02:17:03;;;;;;;5.72;2.53;;;14.30;99.90;;;;;;4146234;28;20038;-70
2023/10/06 02:19:08;;;;;;;14.55;3.60;;;14.20;99.90;;;;;;4152732;28;20040;-69
2023/10/06 02:21:11;;;;;;;5.40;2.83;;;14.30;99.90;;;;;;4149483;28;20066;-70
2023/10/06 02:23:13;;;;;;;7.53;3.22;;;14.20;99.90;;;;;;4143669;28;20398;-70
2023/10/06 02:25:14;;;;;;;4.80;2.60;;;14.20;99.90;;;;;;4146992;28;20033;-70
2023/10/06 02:27:15;;;;;;;6.65;2.78;;;14.20;99.90;;;;;;4146881;28;20089;-70
2023/10/06 02:29:21;;;;;;;7.43;3.05;;;14.20;99.90;;;;;;4152550;28;21244;-70
2023/10/06 02:31:22;;;;;;;5.07;2.85;;;14.20;99.90;;;;;;4149640;28;20037;-70
2023/10/06 02:33:24;;;;;;;4.65;3.05;;;14.20;99.90;;;;;;4150349;28;20128;-70
2023/10/06 02:35:25;;;;;;;4.32;2.70;;;14.20;99.90;;;;;;4152338;28;20049;-70
2023/10/06 02:37:25;;;;;;;11.48;3.08;;;14.20;99.90;;;;;;4148291;28;20506;-71
2023/10/06 02:39:31;;;;;;;5.25;2.92;;;14.10;99.90;;;;;;4149102;28;20085;-70
2023/10/06 02:41:33;;;;;;;6.60;2.30;;;14.10;99.90;;;;;;4151283;28;20038;-70
2023/10/06 02:43:34;;;;;;;;;;;14.10;99.90;;;;;;4151483;28;20033;-70
2023/10/06 02:45:40;;;;;;;7.15;3.08;;;14.10;99.90;;;;;;4150342;28;19913;-69
2023/10/06 02:47:41;;;;;;;5.63;2.88;;;14.10;99.90;;;;;;4150534;28;20033;-70
2023/10/06 02:49:48;;;;;;;8.38;2.97;;;14.10;99.90;;;;;;4131820;28;20581;-70
2023/10/06 02:51:49;;;;;;;7.53;3.08;;;14.00;99.90;;;;;;4146450;28;20429;-70
2023/10/06 02:53:50;;;;;;;6.90;2.78;;;14.00;99.90;;;;;;4149545;28;20037;-70
2023/10/06 02:56:05;;;;;;;5.43;2.83;;;14.00;99.90;;;;;;4150787;28;20413;-70
2023/10/06 02:58:06;;;;;;;6.07;2.80;;;14.00;99.90;;;;;;4149423;28;20045;-70
2023/10/06 03:02:26;;;;;;;5.57;2.92;;;14.00;99.90;;;;;;4131716;28;20350;-71
2023/10/06 03:04:27;;;;;;;7.15;2.72;;;14.00;99.90;;;;;;4146816;28;20041;-71
2023/10/06 03:06:31;;;;;;;6.57;3.20;;;14.00;99.90;;;;;;4146028;28;20506;-71
2023/10/06 03:08:35;;;;;;;4.93;2.40;;;14.00;99.90;;;;;;4149806;28;20037;-70
2023/10/06 03:10:42;;;;;;;7.60;3.00;;;14.00;99.90;;;;;;4148576;28;20050;-71
2023/10/06 03:12:43;;;;;;;6.95;3.03;;;14.00;99.90;;;;;;4133722;28;20037;-71
2023/10/06 03:14:44;;;;;;;4.93;3.00;;;14.00;99.90;;;;;;4151731;28;20041;-70
2023/10/06 03:16:50;;;;;;;6.55;2.88;;;14.00;99.90;;;;;;4142725;28;20477;-71
2023/10/06 03:18:52;;;;;;;6.28;2.60;;;14.00;99.90;;;;;;4150516;28;20096;-71
2023/10/06 03:21:30;;;;;;;4.57;2.30;;;13.90;99.90;;;;;;4149129;28;20036;-70
2023/10/06 03:23:58;;;;;;;8.65;2.85;;;13.90;99.90;;;;;;4149769;28;20036;-71
2023/10/06 03:25:49;;;;;;;7.85;3.20;;;13.90;99.90;;;;;;4145260;28;20038;-70
2023/10/06 03:27:53;;;;;;;5.65;2.80;;;13.90;99.90;;;;;;4135730;28;20346;-70
2023/10/06 03:31:56;;;;;;;7.00;2.90;;;13.90;99.90;;;;;;4151910;28;20064;-71
2023/10/06 03:33:57;;;;;;;6.40;3.45;;;13.90;99.90;;;;;;4105477;28;20410;-71
2023/10/06 03:35:58;;;;;;;5.03;2.40;;;13.90;99.90;;;;;;4046330;28;20077;-71
2023/10/06 03:38:08;;;;;;;8.02;3.45;;;13.80;99.90;;;;;;4055285;28;20072;-71
2023/10/06 03:40:22;;;;;;;5.60;2.58;;;13.90;99.90;;;;;;4032759;28;20043;-71
2023/10/06 03:42:27;;;;;;;5.65;2.47;;;13.90;99.90;;;;;;4023731;28;20044;-71
2023/10/06 03:44:30;;;;;;;7.25;2.83;;;13.90;99.90;;;;;;4099392;28;20049;-71
2023/10/06 03:46:37;;;;;;;8.82;3.55;;;13.80;99.90;;;;;;4133855;28;20045;-71
2023/10/06 03:48:39;;;;;;;4.43;2.33;;;13.90;99.90;;;;;;4139430;28;20029;-70
2023/10/06 03:50:44;;;;;;;6.45;2.85;;;13.90;99.90;;;;;;4119922;28;20030;-70
2023/10/06 03:52:46;;;;;;;6.55;2.97;;;13.90;99.90;;;;;;4136511;28;20029;-71
2023/10/06 03:54:48;;;;;;;;;;;13.80;99.90;;;;;;4152334;28;20451;-71
2023/10/06 03:56:49;;;;;;;6.38;2.80;;;13.90;99.90;;;;;;4148106;28;20412;-71
2023/10/06 03:58:50;;;;;;;7.40;2.83;;;13.80;99.90;;;;;;4147900;28;20042;-70
2023/10/06 04:00:51;;;;;;;5.63;2.63;;;13.80;99.90;;;;;;4150986;28;20034;-70
2023/10/06 04:02:52;;;;;;;7.57;2.97;;;13.80;99.90;;;;;;4153660;28;20111;-71
2023/10/06 04:04:53;;;;;;;6.88;3.00;;;13.80;99.90;;;;;;4152477;28;20034;-71
2023/10/06 04:06:56;;;;;;;6.50;2.80;;;13.80;99.90;;;;;;4150423;28;20117;-70
2023/10/06 04:08:59;;;;;;;5.15;2.60;;;13.80;99.90;;;;;;4137643;28;20384;-72
2023/10/06 04:10:59;;;;;;;;;;;13.80;99.90;;;;;;4123385;28;20030;-72
2023/10/06 04:13:00;;;;;;;7.68;2.70;;;13.80;99.90;;;;;;4138640;28;20321;-72
2023/10/06 04:15:03;;;;;;;5.57;2.65;;;13.80;99.90;;;;;;4141043;28;20031;-72
2023/10/06 04:17:05;;;;;;;7.38;3.28;;;13.80;99.90;;;;;;4136426;28;20034;-72
2023/10/06 04:19:06;;;;;;;8.40;3.45;;;13.80;99.90;;;;;;4137646;28;20030;-72
2023/10/06 04:21:11;;;;;;;6.53;2.85;;;13.70;99.90;;;;;;4131748;28;20495;-72
2023/10/06 04:23:13;;;;;;;9.35;3.30;;;13.70;99.90;;;;;;4140046;28;20083;-72
2023/10/06 04:25:16;;;;;;;5.57;2.85;;;13.70;99.90;;;;;;4135413;28;20030;-72
2023/10/06 04:27:16;;;;;;;;;;;13.70;99.90;;;;;;4137869;28;20042;-72
2023/10/06 04:29:18;;;;;;;7.93;3.08;;;13.70;99.90;;;;;;4138130;28;19918;-72
2023/10/06 04:31:19;;;;;;;8.82;3.00;;;13.60;99.90;;;;;;4120061;28;20030;-72
2023/10/06 04:33:19;;;;;;;5.68;2.78;;;13.60;99.90;;;;;;4135868;28;20111;-72
2023/10/06 04:35:24;;;;;;;8.25;3.25;;;13.60;99.90;;;;;;4137381;28;20334;-72
2023/10/06 04:37:26;;;;;;;4.63;2.60;;;13.60;99.90;;;;;;4129054;28;20054;-72
2023/10/06 04:39:26;;;;;;;8.18;3.00;;;13.50;99.90;;;;;;4139567;28;20516;-71
2023/10/06 04:41:27;;;;;;;5.90;2.67;;;13.50;99.90;;;;;;4120386;28;20071;-72
2023/10/06 04:43:27;;;;;;;5.18;2.78;;;13.50;99.90;;;;;;4127194;28;20037;-72
2023/10/06 04:45:31;;;;;;;6.10;2.85;;;13.50;99.90;;;;;;4121875;28;20034;-72
2023/10/06 04:47:36;;;;;;;5.65;2.88;;;13.50;99.90;;;;;;4138018;28;20034;-72
2023/10/06 04:49:37;;;;;;;5.70;2.85;;;13.50;99.90;;;;;;4131877;28;20037;-72
2023/10/06 04:51:38;;;;;;;6.03;3.10;;;13.50;99.90;;;;;;4140148;28;20057;-72
2023/10/06 04:53:38;;;;;;;6.65;2.78;;;13.50;99.90;;;;;;4107119;28;20109;-72
2023/10/06 04:55:39;;;;;;;6.13;3.00;;;13.50;99.90;;;;;;4131129;28;20498;-72
2023/10/06 04:57:41;;;;;;;7.55;3.03;;;13.60;99.90;;;;;;4132600;28;20505;-72
2023/10/06 04:59:42;;;;;;;4.15;2.63;;;13.50;99.90;;;;;;4136848;28;20030;-71
2023/10/06 05:01:45;;;;;;;5.25;2.60;;;13.50;99.90;;;;;;4134581;28;20122;-72
2023/10/06 05:03:46;;;;;;;6.38;3.22;;;13.50;99.90;;;;;;4133183;28;20030;-71
2023/10/06 05:05:46;;;;;;;4.90;2.80;;;13.50;99.90;;;;;;4132642;28;20438;-72
2023/10/06 05:07:51;;;;;;;5.07;2.90;;;13.50;99.90;;;;;;4131752;28;20051;-71
2023/10/06 05:09:55;;;;;;;8.18;3.03;;;13.50;99.90;;;;;;4135887;28;20258;-72
2023/10/06 05:11:56;;;;;;;7.07;2.97;;;13.40;99.90;;;;;;4139865;28;20050;-72
2023/10/06 05:13:57;;;;;;;9.98;3.10;;;13.50;99.90;;;;;;4146599;28;20433;-72
2023/10/06 05:15:58;;;;;;;6.53;3.30;;;13.50;99.90;;;;;;4154632;28;20030;-72
2023/10/06 05:18:00;;;;;;;5.43;3.05;;;13.50;99.90;;;;;;4128216;28;20509;-72
2023/10/06 05:20:01;;;;;;;7.67;2.93;;;13.50;99.90;;;;;;4146807;28;20078;-72
2023/10/06 05:22:05;;;;;;;5.95;2.75;;;13.50;99.90;;;;;;4146525;28;20045;-72
2023/10/06 05:24:08;;;;;;;10.43;3.03;;;13.50;99.90;;;;;;4135391;28;20041;-72
2023/10/06 05:26:10;;;;;;;6.45;2.83;;;13.50;99.90;;;;;;4152555;28;20440;-69
2023/10/06 05:28:11;;;;;;;6.67;3.00;;;13.50;99.90;;;;;;4151156;28;20486;-69
2023/10/06 05:30:14;;;;;;;9.68;3.58;;;13.50;99.90;;;;;;4119222;28;20057;-70
2023/10/06 05:32:15;;;;;;;5.30;2.88;;;13.50;99.90;;;;;;4130463;28;20582;-69
2023/10/06 05:34:17;;;;;;;7.30;3.10;;;13.40;99.90;;;;;;4136807;28;20026;-70
2023/10/06 05:36:18;;;;;;;5.53;2.95;;;13.30;99.90;;;;;;4128970;28;20126;-69
2023/10/06 05:38:19;;;;;;;7.00;2.90;;;13.40;99.90;;;;;;4131913;28;20043;-69
2023/10/06 05:40:21;;;;;;;6.72;3.03;;;13.40;99.90;;;;;;4126752;28;20132;-69
2023/10/06 05:42:21;;;;;;;6.30;2.90;;;13.40;99.90;;;;;;4131734;28;20030;-70
2023/10/06 05:44:23;;;;;;;7.35;3.35;;;13.40;99.90;;;;;;4146510;28;20029;-70
2023/10/06 05:46:27;;;;;;;7.60;3.23;;;13.40;99.90;;;;;;4126518;28;20023;-70
2023/10/06 05:48:30;;;;;;;6.88;2.92;;;13.30;99.90;;;;;;4144515;28;20037;-70
2023/10/06 05:50:35;;;;;;;6.45;2.92;;;13.40;99.90;;;;;;4155886;28;20033;-70
2023/10/06 05:52:38;;;;;;;7.53;2.78;;;13.40;99.90;;;;;;4128767;28;20085;-70
2023/10/06 05:54:39;;;;;;;6.85;3.13;;;13.40;99.90;;;;;;4113449;28;20143;-70
2023/10/06 05:56:44;;;;;;;7.07;2.55;;;13.40;99.90;;;;;;4144758;28;20049;-70
2023/10/06 05:58:45;;;;;;;5.40;2.97;;;13.40;99.90;;;;;;4134770;28;20176;-70
2023/10/06 06:01:05;;;;;;;6.70;2.78;;;13.40;99.90;;;;;;4135961;28;20045;-70
2023/10/06 06:03:13;;;;;;;9.38;3.45;;;13.40;99.90;;;;;;4133307;28;20030;-70
2023/10/06 06:05:15;;;;;;;6.38;3.00;;;13.40;99.90;;;;;;4133329;28;20049;-70
2023/10/06 06:07:15;;;;;;;5.30;2.75;;;13.40;99.90;;;;;;4134611;28;20042;-70
2023/10/06 06:09:19;;;;;;;6.30;3.00;;;13.50;99.90;;;;;;4137715;28;20033;-70
2023/10/06 06:11:20;;;;;;;4.80;2.63;;;13.40;99.90;;;;;;4107579;28;20051;-69
2023/10/06 06:13:21;;;;;;;8.00;3.58;;;13.40;99.90;;;;;;4136636;28;20133;-72
2023/10/06 06:15:23;;;;;;;6.28;2.92;;;13.40;99.90;;;;;;4128820;28;20104;-70
2023/10/06 06:17:24;;;;;;;5.25;2.28;;;13.40;99.90;;;;;;4134628;28;20034;-70
2023/10/06 06:19:24;;;;;;;5.43;2.83;;;13.50;99.90;;;;;;4111421;28;21011;-70
2023/10/06 06:21:25;;;;;;;7.90;2.72;;;13.50;99.90;;;;;;4139164;28;20676;-70
2023/10/06 06:23:25;;;;;;;6.85;3.13;;;13.50;99.90;;;;;;4141886;28;20182;-70
2023/10/06 06:25:26;;;;;;;6.90;2.97;;;13.50;99.90;;;;;;4123894;28;20048;-70
2023/10/06 06:27:27;;;;;;;9.90;3.35;;;13.50;99.90;;;;;;4124626;28;20537;-70
2023/10/06 06:29:29;;;;;;;5.90;2.80;;;13.50;99.90;;;;;;4127982;28;20039;-70
2023/10/06 06:31:32;;;;;;;;;;;13.60;99.90;;;;;;4127141;28;20042;-70
2023/10/06 06:33:35;;;;;;;8.02;2.95;;;13.50;99.90;;;;;;4126229;28;19926;-71
2023/10/06 06:35:36;;;;;;;5.65;2.40;;;13.60;99.90;;;;;;4128278;28;20030;-71
2023/10/06 06:37:37;;;;;;;7.13;3.05;;;13.60;99.90;;;;;;4145332;28;20057;-71
2023/10/06 06:39:42;;;;;;;11.15;3.83;;;13.70;99.90;;;;;;4116452;28;20121;-71
2023/10/06 06:41:43;;;;;;;6.18;2.70;;;13.80;99.90;;;;;;4143578;28;20030;-72
2023/10/06 06:43:45;;;;;;;5.47;2.53;;;13.90;99.90;;;;;;4150129;28;20030;-71
2023/10/06 06:45:46;;;;;;;6.70;3.10;;;14.00;99.90;;;;;;4127784;28;20050;-71
2023/10/06 06:47:47;;;;;;;7.18;3.22;;;14.00;99.90;;;;;;4154008;28;20095;-71
2023/10/06 06:49:48;;;;;;;7.20;2.90;;;14.10;99.90;;;;;;4151206;28;20030;-71
2023/10/06 06:51:52;;;;;;;5.97;2.90;;;14.10;99.90;;;;;;4133983;28;20062;-70
2023/10/06 06:53:52;;;;;;;6.18;2.88;;;14.10;99.90;;;;;;4132597;28;20504;-71
2023/10/06 06:55:53;;;;;;;6.45;3.00;;;14.20;99.90;;;;;;4155196;28;20096;-71
2023/10/06 06:57:54;;;;;;;8.27;3.00;;;14.20;99.90;;;;;;4156184;28;20037;-71
2023/10/06 06:59:54;;;;;;;8.80;3.33;;;14.20;99.90;;;;;;4150842;28;20383;-70
2023/10/06 07:01:58;;;;;;;5.20;3.00;;;14.20;99.90;;;;;;4151875;28;20112;-71
2023/10/06 07:04:00;;;;;;;6.15;3.55;;;14.30;99.90;;;;;;4150207;28;20026;-71
2023/10/06 07:06:01;;;;;;;10.02;3.03;;;14.30;99.90;;;;;;4145146;28;20121;-71
2023/10/06 07:08:04;;;;;;;7.65;2.70;;;14.40;99.90;;;;;;4149726;28;20060;-70
2023/10/06 07:10:18;;;;;;;6.90;3.38;;;14.40;99.90;;;;;;4131543;28;20045;-70
2023/10/06 07:12:18;;;;;;;8.05;3.30;;;14.50;99.90;;;;;;4155552;28;20130;-71
2023/10/06 07:14:19;;;;;;;7.50;3.03;;;14.50;99.90;;;;;;4155648;28;20073;-71
2023/10/06 07:16:21;;;;;;;7.32;2.83;;;14.60;99.90;;;;;;4149499;28;20045;-71
2023/10/06 07:18:26;;;;;;;6.80;2.80;;;14.70;99.90;;;;;;4132800;28;20553;-71
2023/10/06 07:20:27;;;;;;;;;;;14.80;99.90;;;;;;4148800;28;20112;-71
2023/10/06 07:22:31;;;;;;;10.85;3.05;;;14.80;99.90;;;;;;4133103;28;19917;-71
2023/10/06 07:24:32;;;;;;;9.13;3.15;;;14.80;99.90;;;;;;4147726;28;20022;-71
2023/10/06 07:26:32;;;;;;;6.80;2.92;;;14.90;99.90;;;;;;4134705;28;20183;-72
2023/10/06 07:28:33;;;;;;;10.23;3.38;;;15.00;99.90;;;;;;4152350;28;20034;-72
2023/10/06 07:30:36;;;;;;;6.43;3.15;;;15.10;99.90;;;;;;4135032;28;20475;-71
2023/10/06 07:32:41;;;;;;;8.95;3.10;;;15.10;99.90;;;;;;4151753;28;20129;-71
2023/10/06 07:34:42;;;;;;;7.50;3.00;;;15.20;99.90;;;;;;4132634;28;20384;-70
2023/10/06 07:36:43;;;;;;;6.55;2.95;;;15.30;99.90;;;;;;4152785;28;20490;-70
2023/10/06 07:38:45;;;;;;;9.60;2.88;;;15.40;99.90;;;;;;4154113;28;20381;-70
2023/10/06 07:40:46;;;;;;;9.15;3.47;;;15.40;99.90;;;;;;4134594;28;20030;-70
2023/10/06 07:42:52;;;;;;;5.40;2.90;;;15.50;99.90;;;;;;4136865;28;20041;-70
2023/10/06 07:44:52;;;;;;;9.25;3.58;;;15.70;99.90;;;;;;4150873;28;20117;-70
2023/10/06 07:46:53;;;;;;;8.98;2.65;;;15.70;99.90;;;;;;4147611;28;21302;-70
2023/10/06 07:48:55;;;;;;;5.35;2.75;;;15.80;99.90;;;;;;4149425;28;20061;-70
2023/10/06 07:51:09;;;;;;;6.47;3.00;;;15.90;99.90;;;;;;4146631;28;20042;-70
2023/10/06 07:53:10;;;;;;;6.07;2.97;;;16.00;99.90;;;;;;4151989;28;20444;-70
2023/10/06 07:55:11;;;;;;;7.70;2.83;;;16.00;99.90;;;;;;4154041;28;21590;-70
2023/10/06 07:57:12;;;;;;;7.13;2.80;;;16.00;99.90;;;;;;4152653;28;20045;-70
2023/10/06 07:59:14;;;;;;;6.53;2.95;;;16.10;99.90;;;;;;4111917;28;20038;-70
2023/10/06 08:01:19;;;;;;;6.68;2.58;;;16.10;99.90;;;;;;4130912;28;20580;-69
2023/10/06 08:03:19;;;;;;;7.72;2.70;;;16.20;99.90;;;;;;4154243;28;20049;-70
2023/10/06 08:05:20;;;;;;;5.20;2.80;;;16.30;99.90;;;;;;4130953;28;20026;-69
2023/10/06 08:07:26;;;;;;;5.47;2.70;;;16.40;99.90;;;;;;4149150;28;20044;-70
2023/10/06 08:09:27;;;;;;;8.27;2.85;;;16.60;99.90;;;;;;4150012;28;20053;-69
2023/10/06 08:11:32;;;;;;;6.47;2.25;;;16.70;99.90;;;;;;4149242;28;20030;-69
2023/10/06 08:13:34;;;;;;;7.57;2.85;;;16.90;99.90;;;;;;4152293;28;20033;-69
2023/10/06 08:15:38;;;;;;;4.57;2.55;;;17.10;99.90;;;;;;4150154;28;20040;-69
2023/10/06 08:17:38;;;;;;;10.65;3.22;;;17.30;99.90;;;;;;4144761;28;20499;-69
2023/10/06 08:19:39;;;;;;;6.25;2.70;;;17.40;99.90;;;;;;4151819;28;20084;-69
2023/10/06 08:21:41;;;;;;;6.82;2.72;;;17.60;99.90;;;;;;4148667;28;20402;-69
2023/10/06 08:23:41;;;;;;;7.07;2.97;;;17.70;99.90;;;;;;4154035;28;20552;-69
2023/10/06 08:25:42;;;;;;;8.13;2.67;;;17.90;99.90;;;;;;4147111;28;20046;-70
2023/10/06 08:27:44;;;;;;;6.35;2.63;;;18.00;99.90;;;;;;4151271;28;20398;-70
2023/10/06 08:29:45;;;;;;;7.20;2.92;;;18.10;99.90;;;;;;4150996;28;20026;-69
2023/10/06 08:31:46;;;;;;;8.65;2.95;;;18.10;99.90;;;;;;4151464;28;20029;-70
2023/10/06 08:33:47;;;;;;;8.90;2.83;;;18.20;99.90;;;;;;4152386;28;20026;-69
2023/10/06 08:35:55;;;;;;;5.80;2.40;;;18.30;99.90;;;;;;4150050;28;20097;-70
2023/10/06 08:37:56;;;;;;;10.43;2.92;;;18.30;99.90;;;;;;4130629;28;20069;-70
2023/10/06 08:39:57;;;;;;;7.38;3.22;;;18.40;99.90;;;;;;4111240;28;20373;-70
2023/10/06 08:41:58;;;;;;;10.02;2.90;;;18.40;99.90;;;;;;4145443;28;20072;-70
2023/10/06 08:44:02;;;;;;;7.53;3.03;;;18.50;99.90;;;;;;4156396;28;20389;-69
2023/10/06 08:46:02;;;;;;;9.18;3.47;;;18.60;99.90;;;;;;4147306;28;20496;-70
2023/10/06 08:48:09;;;;;;;5.07;2.45;;;18.60;99.90;;;;;;4151897;28;20129;-70
2023/10/06 08:50:13;;;;;;;6.32;2.70;;;18.60;99.90;;;;;;4145408;28;20034;-69
2023/10/06 08:52:18;;;;;;;6.88;3.10;;;18.70;99.90;;;;;;4152121;28;20032;-69
2023/10/06 08:54:20;;;;;;;7.80;3.15;;;18.70;99.90;;;;;;4153320;28;20187;-69
2023/10/06 08:56:21;;;;;;;9.70;3.30;;;18.70;99.90;;;;;;4130550;28;20039;-69
2023/10/06 08:58:26;;;;;;;10.07;3.88;;;18.80;99.90;;;;;;4151720;28;20308;-68
2023/10/06 09:00:31;;;;;;;8.90;3.08;;;18.80;99.90;;;;;;4154153;28;20128;-69
2023/10/06 09:02:31;;;;;;;7.18;2.83;;;18.90;99.90;;;;;;4150710;28;20048;-69
2023/10/06 09:04:35;;;;;;;6.20;2.90;;;19.00;99.90;;;;;;4150730;28;20494;-69
2023/10/06 09:06:38;;;;;;;8.68;3.20;;;19.00;99.90;;;;;;4146754;28;20478;-68
2023/10/06 09:08:40;;;;;;;5.50;2.58;;;19.00;99.90;;;;;;4152723;28;20072;-69
2023/10/06 09:10:48;;;;;;;8.63;3.10;;;19.00;99.90;;;;;;4152551;28;20034;-68
2023/10/06 09:13:07;;;;;;;7.18;2.83;;;19.00;99.90;;;;;;4146327;28;20371;-68
2023/10/06 09:15:15;;;;;;;6.38;2.90;;;19.10;99.90;;;;;;4133112;28;20535;-69
2023/10/06 09:17:31;;;;;;;6.18;2.58;;;19.20;99.90;;;;;;4152544;28;20030;-68
2023/10/06 09:19:47;;;;;;;6.78;2.63;;;19.20;99.90;;;;;;4151015;28;20034;-69
2023/10/06 09:22:01;;;;;;;8.40;2.78;;;19.10;99.90;;;;;;4153129;28;20367;-68
2023/10/06 09:24:17;;;;;;;6.53;2.95;;;19.10;99.90;;;;;;4146106;28;20364;-69
2023/10/06 09:26:31;;;;;;;6.97;2.55;;;19.20;99.90;;;;;;4128820;28;20041;-69
2023/10/06 09:28:32;;;;;;;7.72;2.97;;;19.20;99.90;;;;;;4149435;28;20380;-69
2023/10/06 09:31:05;;;;;;;5.65;2.95;;;19.20;99.90;;;;;;4153794;28;20092;-69
2023/10/06 09:33:06;;;;;;;5.10;2.45;;;19.20;99.90;;;;;;4127542;28;20030;-68
2023/10/06 09:35:21;;;;;;;9.30;3.08;;;19.30;99.90;;;;;;4147277;28;20399;-68
2023/10/06 09:37:23;;;;;;;9.18;2.53;;;19.30;99.90;;;;;;4153508;28;20535;-68
2023/10/06 09:39:32;;;;;;;8.00;3.03;;;19.40;99.90;;;;;;4157942;28;20116;-68
2023/10/06 09:41:33;;;;;;;6.47;3.03;;;19.50;99.90;;;;;;4149935;28;20030;-69
2023/10/06 09:43:36;;;;;;;9.07;3.05;;;19.60;99.90;;;;;;4146775;28;20030;-69
2023/10/06 09:45:37;;;;;;;8.20;2.90;;;19.60;99.90;;;;;;4145504;28;20037;-69
2023/10/06 09:47:42;;;;;;;6.65;3.17;;;19.70;99.90;;;;;;4145636;28;20129;-69
2023/10/06 09:49:45;;;;;;;5.75;2.95;;;19.70;99.90;;;;;;4153497;28;20478;-68
2023/10/06 09:51:46;;;;;;;8.48;2.85;;;19.70;99.90;;;;;;4151483;28;20034;-69
2023/10/06 09:53:47;;;;;;;3.40;2.23;;;19.70;99.90;;;;;;4145669;28;20540;-68
2023/10/06 09:55:49;;;;;;;8.38;3.55;;;19.80;99.90;;;;;;4136886;28;20030;-69
2023/10/06 09:57:50;;;;;;;6.80;2.95;;;19.70;99.90;;;;;;4125524;28;20065;-64
2023/10/06 09:59:55;;;;;;;6.00;3.17;;;19.60;99.90;;;;;;4151429;28;20379;-70
2023/10/06 10:01:56;;;;;;;6.60;3.08;;;19.60;99.90;;;;;;4143552;28;20148;-70
2023/10/06 10:03:58;;;;;;;11.97;3.57;;;19.50;99.90;;;;;;4119996;28;20041;-70
2023/10/06 10:06:04;;;;;;;8.50;3.13;;;19.50;99.90;;;;;;4143992;28;20029;-70
2023/10/06 10:08:06;;;;;;;7.65;2.78;;;19.40;99.90;;;;;;4136046;28;20117;-70
2023/10/06 10:10:10;;;;;;;;;;;19.30;99.90;;;;;;4147171;28;20037;-70
2023/10/06 10:12:48;;;;;;;7.57;2.88;;;19.30;99.90;;;;;;4132880;28;20511;-70
2023/10/06 10:15:12;;;;;;;5.32;2.50;;;19.40;99.90;;;;;;4146816;28;20036;-70
2023/10/06 10:17:29;;;;;;;6.82;3.15;;;19.50;99.90;;;;;;4146773;28;20052;-69
2023/10/06 10:19:31;;;;;;;8.65;3.05;;;19.60;99.90;;;;;;4133242;28;20117;-70
2023/10/06 10:21:34;;;;;;;10.20;3.25;;;19.60;99.90;;;;;;4131571;28;20038;-72
2023/10/06 10:23:40;;;;;;;9.90;3.15;;;19.70;99.90;;;;;;4141444;28;20506;-70
2023/10/06 10:25:41;;;;;;;6.00;2.67;;;19.70;99.90;;;;;;4113443;28;20035;-69
2023/10/06 10:27:43;;;;;;;9.75;3.42;;;19.70;99.90;;;;;;4154350;28;20037;-70
2023/10/06 10:29:44;;;;;;;8.93;2.90;;;19.80;99.90;;;;;;4147145;28;20122;-69
2023/10/06 10:32:01;;;;;;;8.95;4.18;;;19.90;99.90;;;;;;4133661;28;20049;-71
2023/10/06 10:34:01;;;;;;;5.43;2.55;;;20.00;99.90;;;;;;4148026;28;20033;-70
2023/10/06 10:36:17;;;;;;;4.55;2.58;;;20.00;99.90;;;;;;4140972;28;20030;-70
2023/10/06 10:38:18;;;;;;;5.65;2.33;;;20.10;99.90;;;;;;4144856;28;20053;-70
2023/10/06 10:40:27;;;;;;;8.45;2.75;;;20.10;99.90;;;;;;4147747;28;20034;-71
2023/10/06 10:42:38;;;;;;;9.57;3.35;;;20.00;99.90;;;;;;4129205;28;20030;-70
2023/10/06 10:44:40;;;;;;;7.63;2.80;;;20.00;99.90;;;;;;4134563;28;20038;-70
2023/10/06 10:46:49;;;;;;;11.97;3.47;;;20.00;99.90;;;;;;4150973;28;20037;-70
2023/10/06 10:48:49;;;;;;;7.78;2.88;;;19.90;99.90;;;;;;4140627;28;20273;-70